sensor_id;sensor_type;location;lat;lon;timestamp;P1;durP1;ratioP1;P2;durP2;ratioP2
11263;SDS011;5689;48.798;9.070;2023-02-15T00:02:03;1.30;;;1.30;;
11263;SDS011;5689;48.798;9.070;2023-02-15T00:04:31;1.77;;;1.73;;
11263;SDS011;5689;48.798;9.070;2023-02-15T00:07:13;1.47;;;1.47;;
11263;SDS011;5689;48.798;9.070;2023-02-15T00:09:42;1.40;;;1.40;;
11263;SDS011;5689;48.798;9.070;2023-02-15T00:12:12;1.30;;;1.30;;
11263;SDS011;5689;48.798;9.070;2023-02-15T00:14:40;1.60;;;1.60;;
11263;SDS011;5689;48.798;9.070;2023-02-15T00:17:09;1.40;;;1.40;;
11263;SDS011;5689;48.798;9.070;2023-02-15T00:19:38;1.20;;;1.20;;
11263;SDS011;5689;48.798;9.070;2023-02-15T00:22:06;1.50;;;1.50;;
11263;SDS011;5689;48.798;9.070;2023-02-15T00:24:34;1.50;;;1.50;;
11263;SDS011;5689;48.798;9.070;2023-02-15T00:27:02;1.50;;;1.50;;
11263;SDS011;5689;48.798;9.070;2023-02-15T00:29:30;1.63;;;1.63;;
11263;SDS011;5689;48.798;9.070;2023-02-15T00:31:58;1.50;;;1.50;;
11263;SDS011;5689;48.798;9.070;2023-02-15T00:34:27;1.30;;;1.30;;
11263;SDS011;5689;48.798;9.070;2023-02-15T00:36:55;1.83;;;1.77;;
11263;SDS011;5689;48.798;9.070;2023-02-15T00:39:24;1.50;;;1.50;;
11263;SDS011;5689;48.798;9.070;2023-02-15T00:41:53;1.60;;;1.60;;
11263;SDS011;5689;48.798;9.070;2023-02-15T00:44:22;1.40;;;1.40;;
11263;SDS011;5689;48.798;9.070;2023-02-15T00:46:50;1.50;;;1.50;;
11263;SDS011;5689;48.798;9.070;2023-02-15T00:49:19;1.87;;;1.77;;
11263;SDS011;5689;48.798;9.070;2023-02-15T00:51:48;1.60;;;1.60;;
11263;SDS011;5689;48.798;9.070;2023-02-15T00:54:16;1.57;;;1.57;;
11263;SDS011;5689;48.798;9.070;2023-02-15T00:56:44;1.53;;;1.53;;
11263;SDS011;5689;48.798;9.070;2023-02-15T00:59:13;1.40;;;1.40;;
11263;SDS011;5689;48.798;9.070;2023-02-15T01:01:41;1.40;;;1.40;;
11263;SDS011;5689;48.798;9.070;2023-02-15T01:04:08;1.60;;;1.60;;
11263;SDS011;5689;48.798;9.070;2023-02-15T01:06:36;1.50;;;1.50;;
11263;SDS011;5689;48.798;9.070;2023-02-15T01:09:06;1.57;;;1.57;;
11263;SDS011;5689;48.798;9.070;2023-02-15T01:11:35;1.40;;;1.40;;
11263;SDS011;5689;48.798;9.070;2023-02-15T01:14:03;1.63;;;1.63;;
11263;SDS011;5689;48.798;9.070;2023-02-15T01:16:31;1.60;;;1.60;;
11263;SDS011;5689;48.798;9.070;2023-02-15T01:18:59;1.67;;;1.67;;
11263;SDS011;5689;48.798;9.070;2023-02-15T01:21:30;1.53;;;1.53;;
11263;SDS011;5689;48.798;9.070;2023-02-15T01:24:01;1.83;;;1.80;;
11263;SDS011;5689;48.798;9.070;2023-02-15T01:26:30;1.40;;;1.40;;
11263;SDS011;5689;48.798;9.070;2023-02-15T01:28:58;1.70;;;1.70;;
11263;SDS011;5689;48.798;9.070;2023-02-15T01:31:26;1.73;;;1.73;;
11263;SDS011;5689;48.798;9.070;2023-02-15T01:33:54;1.67;;;1.67;;
11263;SDS011;5689;48.798;9.070;2023-02-15T01:36:22;1.70;;;1.70;;
11263;SDS011;5689;48.798;9.070;2023-02-15T01:38:50;1.60;;;1.60;;
11263;SDS011;5689;48.798;9.070;2023-02-15T01:41:18;1.90;;;1.87;;
11263;SDS011;5689;48.798;9.070;2023-02-15T01:43:55;1.73;;;1.73;;
11263;SDS011;5689;48.798;9.070;2023-02-15T01:46:26;1.90;;;1.80;;
11263;SDS011;5689;48.798;9.070;2023-02-15T01:48:59;2.00;;;1.90;;
11263;SDS011;5689;48.798;9.070;2023-02-15T01:51:34;1.60;;;1.60;;
11263;SDS011;5689;48.798;9.070;2023-02-15T01:54:06;1.60;;;1.60;;
11263;SDS011;5689;48.798;9.070;2023-02-15T01:56:39;1.43;;;1.43;;
11263;SDS011;5689;48.798;9.070;2023-02-15T01:59:12;1.67;;;1.67;;
11263;SDS011;5689;48.798;9.070;2023-02-15T02:01:47;1.77;;;1.67;;
11263;SDS011;5689;48.798;9.070;2023-02-15T02:04:17;1.70;;;1.70;;
11263;SDS011;5689;48.798;9.070;2023-02-15T02:06:50;1.53;;;1.53;;
11263;SDS011;5689;48.798;9.070;2023-02-15T02:09:19;1.67;;;1.67;;
11263;SDS011;5689;48.798;9.070;2023-02-15T02:11:48;1.80;;;1.80;;
11263;SDS011;5689;48.798;9.070;2023-02-15T02:14:18;1.97;;;1.87;;
11263;SDS011;5689;48.798;9.070;2023-02-15T02:16:48;1.80;;;1.70;;
11263;SDS011;5689;48.798;9.070;2023-02-15T02:25:57;2.00;;;1.90;;
11263;SDS011;5689;48.798;9.070;2023-02-15T02:28:50;1.80;;;1.80;;
11263;SDS011;5689;48.798;9.070;2023-02-15T02:31:47;1.60;;;1.60;;
11263;SDS011;5689;48.798;9.070;2023-02-15T02:34:36;1.70;;;1.70;;
11263;SDS011;5689;48.798;9.070;2023-02-15T02:37:12;2.07;;;1.97;;
11263;SDS011;5689;48.798;9.070;2023-02-15T02:39:51;2.10;;;2.00;;
11263;SDS011;5689;48.798;9.070;2023-02-15T02:42:25;1.90;;;1.80;;
11263;SDS011;5689;48.798;9.070;2023-02-15T02:45:02;2.27;;;2.17;;
11263;SDS011;5689;48.798;9.070;2023-02-15T02:47:33;7.60;;;2.43;;
11263;SDS011;5689;48.798;9.070;2023-02-15T02:50:09;1.80;;;1.80;;
11263;SDS011;5689;48.798;9.070;2023-02-15T02:52:41;2.57;;;2.47;;
11263;SDS011;5689;48.798;9.070;2023-02-15T02:55:11;2.03;;;1.93;;
11263;SDS011;5689;48.798;9.070;2023-02-15T02:57:45;2.20;;;2.07;;
11263;SDS011;5689;48.798;9.070;2023-02-15T03:00:19;2.63;;;2.17;;
11263;SDS011;5689;48.798;9.070;2023-02-15T03:02:50;2.07;;;1.97;;
11263;SDS011;5689;48.798;9.070;2023-02-15T03:05:26;1.97;;;1.87;;
11263;SDS011;5689;48.798;9.070;2023-02-15T03:07:56;1.97;;;1.87;;
11263;SDS011;5689;48.798;9.070;2023-02-15T03:10:27;1.70;;;1.70;;
11263;SDS011;5689;48.798;9.070;2023-02-15T03:12:56;2.33;;;2.13;;
11263;SDS011;5689;48.798;9.070;2023-02-15T03:15:27;2.70;;;2.50;;
11263;SDS011;5689;48.798;9.070;2023-02-15T03:18:20;2.50;;;2.40;;
11263;SDS011;5689;48.798;9.070;2023-02-15T03:20:54;1.93;;;1.83;;
11263;SDS011;5689;48.798;9.070;2023-02-15T03:23:24;2.10;;;2.00;;
11263;SDS011;5689;48.798;9.070;2023-02-15T03:25:59;1.70;;;1.70;;
11263;SDS011;5689;48.798;9.070;2023-02-15T03:28:38;1.77;;;1.70;;
11263;SDS011;5689;48.798;9.070;2023-02-15T03:31:11;2.00;;;1.90;;
11263;SDS011;5689;48.798;9.070;2023-02-15T03:33:42;2.03;;;1.93;;
11263;SDS011;5689;48.798;9.070;2023-02-15T03:36:18;2.60;;;2.40;;
11263;SDS011;5689;48.798;9.070;2023-02-15T03:38:51;2.73;;;2.63;;
11263;SDS011;5689;48.798;9.070;2023-02-15T03:41:26;1.93;;;1.83;;
11263;SDS011;5689;48.798;9.070;2023-02-15T03:44:00;2.17;;;2.07;;
11263;SDS011;5689;48.798;9.070;2023-02-15T03:46:35;2.07;;;1.97;;
11263;SDS011;5689;48.798;9.070;2023-02-15T03:49:08;1.60;;;1.60;;
11263;SDS011;5689;48.798;9.070;2023-02-15T03:51:43;1.57;;;1.57;;
11263;SDS011;5689;48.798;9.070;2023-02-15T03:54:15;3.57;;;2.80;;
11263;SDS011;5689;48.798;9.070;2023-02-15T03:57:02;2.30;;;2.20;;
11263;SDS011;5689;48.798;9.070;2023-02-15T03:59:47;2.03;;;1.93;;
11263;SDS011;5689;48.798;9.070;2023-02-15T04:02:38;2.03;;;1.93;;
11263;SDS011;5689;48.798;9.070;2023-02-15T04:05:12;2.47;;;2.37;;
11263;SDS011;5689;48.798;9.070;2023-02-15T04:07:41;3.50;;;2.50;;
11263;SDS011;5689;48.798;9.070;2023-02-15T04:10:09;2.23;;;2.13;;
11263;SDS011;5689;48.798;9.070;2023-02-15T04:15:40;2.63;;;2.53;;
11263;SDS011;5689;48.798;9.070;2023-02-15T04:18:27;2.17;;;2.07;;
11263;SDS011;5689;48.798;9.070;2023-02-15T04:21:14;3.03;;;2.80;;
11263;SDS011;5689;48.798;9.070;2023-02-15T04:24:00;4.87;;;3.37;;
11263;SDS011;5689;48.798;9.070;2023-02-15T04:26:46;3.07;;;2.90;;
11263;SDS011;5689;48.798;9.070;2023-02-15T04:29:15;2.17;;;2.07;;
11263;SDS011;5689;48.798;9.070;2023-02-15T04:31:43;2.07;;;1.97;;
11263;SDS011;5689;48.798;9.070;2023-02-15T04:34:14;2.70;;;2.60;;
11263;SDS011;5689;48.798;9.070;2023-02-15T04:36:46;5.13;;;2.80;;
11263;SDS011;5689;48.798;9.070;2023-02-15T04:39:18;2.90;;;2.80;;
11263;SDS011;5689;48.798;9.070;2023-02-15T04:41:47;2.47;;;2.33;;
11263;SDS011;5689;48.798;9.070;2023-02-15T04:44:15;2.23;;;2.03;;
11263;SDS011;5689;48.798;9.070;2023-02-15T04:46:44;1.73;;;1.70;;
11263;SDS011;5689;48.798;9.070;2023-02-15T04:49:14;2.50;;;2.40;;
11263;SDS011;5689;48.798;9.070;2023-02-15T04:51:42;8.73;;;3.40;;
11263;SDS011;5689;48.798;9.070;2023-02-15T04:54:11;2.07;;;1.97;;
11263;SDS011;5689;48.798;9.070;2023-02-15T04:56:42;2.80;;;2.67;;
11263;SDS011;5689;48.798;9.070;2023-02-15T04:59:11;2.23;;;2.13;;
11263;SDS011;5689;48.798;9.070;2023-02-15T05:01:49;2.13;;;2.03;;
11263;SDS011;5689;48.798;9.070;2023-02-15T05:04:18;2.37;;;2.27;;
11263;SDS011;5689;48.798;9.070;2023-02-15T05:06:47;2.33;;;2.23;;
11263;SDS011;5689;48.798;9.070;2023-02-15T05:09:16;2.03;;;1.93;;
11263;SDS011;5689;48.798;9.070;2023-02-15T05:11:46;5.80;;;2.40;;
11263;SDS011;5689;48.798;9.070;2023-02-15T05:14:15;2.00;;;1.90;;
11263;SDS011;5689;48.798;9.070;2023-02-15T05:16:44;3.10;;;2.20;;
11263;SDS011;5689;48.798;9.070;2023-02-15T05:19:12;2.27;;;2.17;;
11263;SDS011;5689;48.798;9.070;2023-02-15T05:21:41;2.50;;;2.40;;
11263;SDS011;5689;48.798;9.070;2023-02-15T05:24:10;1.87;;;1.83;;
11263;SDS011;5689;48.798;9.070;2023-02-15T05:26:59;2.70;;;2.60;;
11263;SDS011;5689;48.798;9.070;2023-02-15T05:29:41;2.30;;;2.20;;
11263;SDS011;5689;48.798;9.070;2023-02-15T05:32:10;2.73;;;2.53;;
11263;SDS011;5689;48.798;9.070;2023-02-15T05:34:41;3.03;;;2.40;;
11263;SDS011;5689;48.798;9.070;2023-02-15T05:37:10;2.07;;;1.97;;
11263;SDS011;5689;48.798;9.070;2023-02-15T05:39:39;2.13;;;2.03;;
11263;SDS011;5689;48.798;9.070;2023-02-15T05:42:08;2.53;;;2.43;;
11263;SDS011;5689;48.798;9.070;2023-02-15T05:44:37;1.93;;;1.83;;
11263;SDS011;5689;48.798;9.070;2023-02-15T05:47:14;2.30;;;2.07;;
11263;SDS011;5689;48.798;9.070;2023-02-15T05:49:42;4.10;;;2.23;;
11263;SDS011;5689;48.798;9.070;2023-02-15T05:52:10;1.83;;;1.80;;
11263;SDS011;5689;48.798;9.070;2023-02-15T05:54:38;2.37;;;2.27;;
11263;SDS011;5689;48.798;9.070;2023-02-15T05:57:08;2.17;;;2.07;;
11263;SDS011;5689;48.798;9.070;2023-02-15T05:59:36;2.10;;;2.00;;
11263;SDS011;5689;48.798;9.070;2023-02-15T06:02:05;2.37;;;2.27;;
11263;SDS011;5689;48.798;9.070;2023-02-15T06:04:33;1.80;;;1.80;;
11263;SDS011;5689;48.798;9.070;2023-02-15T06:07:01;2.70;;;2.60;;
11263;SDS011;5689;48.798;9.070;2023-02-15T06:09:29;1.77;;;1.77;;
11263;SDS011;5689;48.798;9.070;2023-02-15T06:11:57;2.00;;;1.90;;
11263;SDS011;5689;48.798;9.070;2023-02-15T06:14:28;2.10;;;2.00;;
11263;SDS011;5689;48.798;9.070;2023-02-15T06:16:57;1.93;;;1.90;;
11263;SDS011;5689;48.798;9.070;2023-02-15T06:19:26;2.27;;;2.17;;
11263;SDS011;5689;48.798;9.070;2023-02-15T06:21:55;2.13;;;2.03;;
11263;SDS011;5689;48.798;9.070;2023-02-15T06:24:24;2.33;;;2.23;;
11263;SDS011;5689;48.798;9.070;2023-02-15T06:26:52;2.50;;;2.40;;
11263;SDS011;5689;48.798;9.070;2023-02-15T06:29:20;2.30;;;2.20;;
11263;SDS011;5689;48.798;9.070;2023-02-15T06:31:50;2.17;;;2.07;;
11263;SDS011;5689;48.798;9.070;2023-02-15T06:34:19;2.20;;;2.10;;
11263;SDS011;5689;48.798;9.070;2023-02-15T06:36:48;2.30;;;2.20;;
11263;SDS011;5689;48.798;9.070;2023-02-15T06:39:17;1.93;;;1.87;;
11263;SDS011;5689;48.798;9.070;2023-02-15T06:41:45;2.33;;;2.23;;
11263;SDS011;5689;48.798;9.070;2023-02-15T06:44:14;2.20;;;2.10;;
11263;SDS011;5689;48.798;9.070;2023-02-15T06:46:42;1.80;;;1.80;;
11263;SDS011;5689;48.798;9.070;2023-02-15T06:49:16;2.23;;;2.13;;
11263;SDS011;5689;48.798;9.070;2023-02-15T06:51:45;1.90;;;1.80;;
11263;SDS011;5689;48.798;9.070;2023-02-15T06:54:14;2.30;;;2.20;;
11263;SDS011;5689;48.798;9.070;2023-02-15T06:56:43;2.60;;;2.40;;
11263;SDS011;5689;48.798;9.070;2023-02-15T06:59:13;2.20;;;2.10;;
11263;SDS011;5689;48.798;9.070;2023-02-15T07:01:42;1.77;;;1.77;;
11263;SDS011;5689;48.798;9.070;2023-02-15T07:04:10;1.97;;;1.87;;
11263;SDS011;5689;48.798;9.070;2023-02-15T07:06:40;2.10;;;2.00;;
11263;SDS011;5689;48.798;9.070;2023-02-15T07:09:09;1.87;;;1.83;;
11263;SDS011;5689;48.798;9.070;2023-02-15T07:11:38;2.13;;;2.03;;
11263;SDS011;5689;48.798;9.070;2023-02-15T07:14:23;2.07;;;1.97;;
11263;SDS011;5689;48.798;9.070;2023-02-15T07:16:54;1.70;;;1.70;;
11263;SDS011;5689;48.798;9.070;2023-02-15T07:19:23;1.50;;;1.50;;
11263;SDS011;5689;48.798;9.070;2023-02-15T07:21:53;1.67;;;1.67;;
11263;SDS011;5689;48.798;9.070;2023-02-15T07:24:21;1.63;;;1.63;;
11263;SDS011;5689;48.798;9.070;2023-02-15T07:26:49;2.13;;;2.03;;
11263;SDS011;5689;48.798;9.070;2023-02-15T07:29:18;2.00;;;1.90;;
11263;SDS011;5689;48.798;9.070;2023-02-15T07:31:46;2.57;;;2.37;;
11263;SDS011;5689;48.798;9.070;2023-02-15T07:34:15;2.57;;;2.37;;
11263;SDS011;5689;48.798;9.070;2023-02-15T07:36:43;1.93;;;1.83;;
11263;SDS011;5689;48.798;9.070;2023-02-15T07:41:59;2.23;;;2.13;;
11263;SDS011;5689;48.798;9.070;2023-02-15T07:44:29;1.80;;;1.80;;
11263;SDS011;5689;48.798;9.070;2023-02-15T07:46:57;2.00;;;1.90;;
11263;SDS011;5689;48.798;9.070;2023-02-15T07:49:25;1.67;;;1.57;;
11263;SDS011;5689;48.798;9.070;2023-02-15T07:51:54;1.97;;;1.87;;
11263;SDS011;5689;48.798;9.070;2023-02-15T07:54:22;1.83;;;1.80;;
11263;SDS011;5689;48.798;9.070;2023-02-15T07:56:52;1.70;;;1.70;;
11263;SDS011;5689;48.798;9.070;2023-02-15T07:59:20;2.00;;;1.90;;
11263;SDS011;5689;48.798;9.070;2023-02-15T08:01:49;2.03;;;1.93;;
11263;SDS011;5689;48.798;9.070;2023-02-15T08:04:22;1.70;;;1.70;;
11263;SDS011;5689;48.798;9.070;2023-02-15T08:06:53;2.03;;;1.93;;
11263;SDS011;5689;48.798;9.070;2023-02-15T08:09:21;1.93;;;1.83;;
11263;SDS011;5689;48.798;9.070;2023-02-15T08:11:51;2.30;;;2.20;;
11263;SDS011;5689;48.798;9.070;2023-02-15T08:14:20;1.97;;;1.87;;
11263;SDS011;5689;48.798;9.070;2023-02-15T08:16:49;2.13;;;2.03;;
11263;SDS011;5689;48.798;9.070;2023-02-15T08:19:19;1.93;;;1.83;;
11263;SDS011;5689;48.798;9.070;2023-02-15T08:21:49;1.77;;;1.77;;
11263;SDS011;5689;48.798;9.070;2023-02-15T08:24:20;2.10;;;2.00;;
11263;SDS011;5689;48.798;9.070;2023-02-15T08:26:49;2.07;;;1.97;;
11263;SDS011;5689;48.798;9.070;2023-02-15T08:29:20;1.67;;;1.67;;
11263;SDS011;5689;48.798;9.070;2023-02-15T08:31:52;5.03;;;2.40;;
11263;SDS011;5689;48.798;9.070;2023-02-15T08:34:25;1.93;;;1.87;;
11263;SDS011;5689;48.798;9.070;2023-02-15T08:36:53;1.77;;;1.77;;
11263;SDS011;5689;48.798;9.070;2023-02-15T08:39:21;2.23;;;2.13;;
11263;SDS011;5689;48.798;9.070;2023-02-15T08:41:52;1.97;;;1.87;;
11263;SDS011;5689;48.798;9.070;2023-02-15T08:44:21;2.10;;;2.00;;
11263;SDS011;5689;48.798;9.070;2023-02-15T08:46:50;2.03;;;1.93;;
11263;SDS011;5689;48.798;9.070;2023-02-15T08:49:35;1.90;;;1.80;;
11263;SDS011;5689;48.798;9.070;2023-02-15T08:52:14;3.13;;;2.73;;
11263;SDS011;5689;48.798;9.070;2023-02-15T08:54:42;1.70;;;1.70;;
11263;SDS011;5689;48.798;9.070;2023-02-15T08:57:12;1.87;;;1.77;;
11263;SDS011;5689;48.798;9.070;2023-02-15T08:59:40;1.70;;;1.70;;
11263;SDS011;5689;48.798;9.070;2023-02-15T09:02:09;1.90;;;1.80;;
11263;SDS011;5689;48.798;9.070;2023-02-15T09:04:37;1.43;;;1.43;;
11263;SDS011;5689;48.798;9.070;2023-02-15T09:07:06;1.40;;;1.40;;
11263;SDS011;5689;48.798;9.070;2023-02-15T09:09:35;1.43;;;1.43;;
11263;SDS011;5689;48.798;9.070;2023-02-15T09:12:03;1.30;;;1.30;;
11263;SDS011;5689;48.798;9.070;2023-02-15T09:14:33;1.20;;;1.20;;
11263;SDS011;5689;48.798;9.070;2023-02-15T09:17:03;1.20;;;1.20;;
11263;SDS011;5689;48.798;9.070;2023-02-15T09:19:41;1.10;;;1.10;;
11263;SDS011;5689;48.798;9.070;2023-02-15T09:22:10;1.20;;;1.20;;
11263;SDS011;5689;48.798;9.070;2023-02-15T09:24:39;1.40;;;1.40;;
11263;SDS011;5689;48.798;9.070;2023-02-15T09:27:07;1.50;;;1.40;;
11263;SDS011;5689;48.798;9.070;2023-02-15T09:29:37;1.10;;;1.10;;
11263;SDS011;5689;48.798;9.070;2023-02-15T09:32:05;1.23;;;1.23;;
11263;SDS011;5689;48.798;9.070;2023-02-15T09:34:33;1.37;;;1.37;;
11263;SDS011;5689;48.798;9.070;2023-02-15T09:37:04;1.10;;;1.10;;
11263;SDS011;5689;48.798;9.070;2023-02-15T09:39:33;1.07;;;1.07;;
11263;SDS011;5689;48.798;9.070;2023-02-15T09:51:23;0.93;;;0.93;;
11263;SDS011;5689;48.798;9.070;2023-02-15T09:54:29;1.17;;;1.17;;
11263;SDS011;5689;48.798;9.070;2023-02-15T10:00:31;0.90;;;0.90;;
11263;SDS011;5689;48.798;9.070;2023-02-15T10:03:13;1.05;;;1.05;;
11263;SDS011;5689;48.798;9.070;2023-02-15T10:05:58;0.60;;;0.60;;
11263;SDS011;5689;48.798;9.070;2023-02-15T10:09:05;0.70;;;0.70;;
11263;SDS011;5689;48.798;9.070;2023-02-15T10:12:20;0.73;;;0.73;;
11263;SDS011;5689;48.798;9.070;2023-02-15T10:15:15;0.60;;;0.60;;
11263;SDS011;5689;48.798;9.070;2023-02-15T10:17:57;0.70;;;0.70;;
11263;SDS011;5689;48.798;9.070;2023-02-15T10:20:43;0.52;;;0.52;;
11263;SDS011;5689;48.798;9.070;2023-02-15T10:23:29;0.60;;;0.60;;
11263;SDS011;5689;48.798;9.070;2023-02-15T10:26:20;0.50;;;0.50;;
11263;SDS011;5689;48.798;9.070;2023-02-15T10:28:50;0.40;;;0.40;;
11263;SDS011;5689;48.798;9.070;2023-02-15T10:31:22;0.50;;;0.50;;
11263;SDS011;5689;48.798;9.070;2023-02-15T10:33:58;0.40;;;0.40;;
11263;SDS011;5689;48.798;9.070;2023-02-15T10:36:53;0.40;;;0.40;;
11263;SDS011;5689;48.798;9.070;2023-02-15T10:39:34;0.30;;;0.30;;
11263;SDS011;5689;48.798;9.070;2023-02-15T10:42:13;0.30;;;0.30;;
11263;SDS011;5689;48.798;9.070;2023-02-15T10:44:54;0.40;;;0.40;;
11263;SDS011;5689;48.798;9.070;2023-02-15T10:47:41;0.40;;;0.40;;
11263;SDS011;5689;48.798;9.070;2023-02-15T10:50:24;0.30;;;0.30;;
11263;SDS011;5689;48.798;9.070;2023-02-15T10:53:08;0.38;;;0.38;;
11263;SDS011;5689;48.798;9.070;2023-02-15T10:55:50;0.30;;;0.30;;
11263;SDS011;5689;48.798;9.070;2023-02-15T10:58:29;0.20;;;0.20;;
11263;SDS011;5689;48.798;9.070;2023-02-15T11:01:07;0.20;;;0.20;;
11263;SDS011;5689;48.798;9.070;2023-02-15T11:03:50;0.28;;;0.28;;
11263;SDS011;5689;48.798;9.070;2023-02-15T11:06:44;0.20;;;0.20;;
11263;SDS011;5689;48.798;9.070;2023-02-15T11:09:18;0.22;;;0.22;;
11263;SDS011;5689;48.798;9.070;2023-02-15T11:11:50;0.30;;;0.30;;
11263;SDS011;5689;48.798;9.070;2023-02-15T11:14:21;0.20;;;0.20;;
11263;SDS011;5689;48.798;9.070;2023-02-15T11:16:59;0.32;;;0.32;;
11263;SDS011;5689;48.798;9.070;2023-02-15T11:19:32;0.30;;;0.30;;
11263;SDS011;5689;48.798;9.070;2023-02-15T11:22:04;0.30;;;0.30;;
11263;SDS011;5689;48.798;9.070;2023-02-15T11:24:36;0.20;;;0.20;;
11263;SDS011;5689;48.798;9.070;2023-02-15T11:27:15;0.10;;;0.10;;
11263;SDS011;5689;48.798;9.070;2023-02-15T11:29:50;0.32;;;0.32;;
11263;SDS011;5689;48.798;9.070;2023-02-15T11:32:25;0.30;;;0.30;;
11263;SDS011;5689;48.798;9.070;2023-02-15T11:34:56;0.20;;;0.20;;
11263;SDS011;5689;48.798;9.070;2023-02-15T11:37:31;0.30;;;0.30;;
11263;SDS011;5689;48.798;9.070;2023-02-15T11:40:03;0.40;;;0.40;;
11263;SDS011;5689;48.798;9.070;2023-02-15T11:42:42;0.30;;;0.30;;
11263;SDS011;5689;48.798;9.070;2023-02-15T11:45:16;0.30;;;0.30;;
11263;SDS011;5689;48.798;9.070;2023-02-15T11:47:48;0.40;;;0.40;;
11263;SDS011;5689;48.798;9.070;2023-02-15T11:50:18;0.40;;;0.40;;
11263;SDS011;5689;48.798;9.070;2023-02-15T11:52:50;0.30;;;0.30;;
11263;SDS011;5689;48.798;9.070;2023-02-15T11:55:21;0.20;;;0.20;;
11263;SDS011;5689;48.798;9.070;2023-02-15T11:57:52;0.40;;;0.40;;
11263;SDS011;5689;48.798;9.070;2023-02-15T12:00:25;0.40;;;0.40;;
11263;SDS011;5689;48.798;9.070;2023-02-15T12:03:04;0.40;;;0.40;;
11263;SDS011;5689;48.798;9.070;2023-02-15T12:05:42;0.40;;;0.40;;
11263;SDS011;5689;48.798;9.070;2023-02-15T12:08:19;0.40;;;0.40;;
11263;SDS011;5689;48.798;9.070;2023-02-15T12:10:55;0.30;;;0.30;;
11263;SDS011;5689;48.798;9.070;2023-02-15T12:13:27;0.40;;;0.40;;
11263;SDS011;5689;48.798;9.070;2023-02-15T12:15:56;0.40;;;0.40;;
11263;SDS011;5689;48.798;9.070;2023-02-15T12:18:32;0.30;;;0.30;;
11263;SDS011;5689;48.798;9.070;2023-02-15T12:21:04;0.40;;;0.40;;
11263;SDS011;5689;48.798;9.070;2023-02-15T12:23:41;0.35;;;0.35;;
11263;SDS011;5689;48.798;9.070;2023-02-15T12:26:13;0.30;;;0.30;;
11263;SDS011;5689;48.798;9.070;2023-02-15T12:28:42;0.20;;;0.20;;
11263;SDS011;5689;48.798;9.070;2023-02-15T12:31:19;0.20;;;0.20;;
11263;SDS011;5689;48.798;9.070;2023-02-15T12:33:50;0.25;;;0.25;;
11263;SDS011;5689;48.798;9.070;2023-02-15T12:36:20;0.30;;;0.30;;
11263;SDS011;5689;48.798;9.070;2023-02-15T12:39:08;0.20;;;0.20;;
11263;SDS011;5689;48.798;9.070;2023-02-15T12:41:46;0.10;;;0.10;;
11263;SDS011;5689;48.798;9.070;2023-02-15T12:44:26;0.30;;;0.30;;
11263;SDS011;5689;48.798;9.070;2023-02-15T12:46:59;0.28;;;0.28;;
11263;SDS011;5689;48.798;9.070;2023-02-15T12:49:29;0.20;;;0.20;;
11263;SDS011;5689;48.798;9.070;2023-02-15T12:51:59;0.30;;;0.30;;
11263;SDS011;5689;48.798;9.070;2023-02-15T12:54:34;0.20;;;0.20;;
11263;SDS011;5689;48.798;9.070;2023-02-15T12:57:13;0.22;;;0.22;;
11263;SDS011;5689;48.798;9.070;2023-02-15T12:59:48;0.20;;;0.20;;
11263;SDS011;5689;48.798;9.070;2023-02-15T13:02:19;0.20;;;0.20;;
11263;SDS011;5689;48.798;9.070;2023-02-15T13:04:50;0.20;;;0.20;;
11263;SDS011;5689;48.798;9.070;2023-02-15T13:07:19;0.30;;;0.30;;
11263;SDS011;5689;48.798;9.070;2023-02-15T13:09:49;0.20;;;0.20;;
11263;SDS011;5689;48.798;9.070;2023-02-15T13:12:19;0.30;;;0.30;;
11263;SDS011;5689;48.798;9.070;2023-02-15T13:14:50;0.20;;;0.20;;
11263;SDS011;5689;48.798;9.070;2023-02-15T13:17:21;0.20;;;0.20;;
11263;SDS011;5689;48.798;9.070;2023-02-15T13:19:56;0.20;;;0.20;;
11263;SDS011;5689;48.798;9.070;2023-02-15T13:22:30;0.28;;;0.28;;
11263;SDS011;5689;48.798;9.070;2023-02-15T13:25:04;0.20;;;0.20;;
11263;SDS011;5689;48.798;9.070;2023-02-15T13:27:39;0.20;;;0.20;;
11263;SDS011;5689;48.798;9.070;2023-02-15T13:30:13;0.20;;;0.20;;
11263;SDS011;5689;48.798;9.070;2023-02-15T13:32:57;0.20;;;0.20;;
11263;SDS011;5689;48.798;9.070;2023-02-15T13:35:28;0.20;;;0.20;;
11263;SDS011;5689;48.798;9.070;2023-02-15T13:38:11;0.30;;;0.30;;
11263;SDS011;5689;48.798;9.070;2023-02-15T13:40:58;0.30;;;0.30;;
11263;SDS011;5689;48.798;9.070;2023-02-15T13:43:34;0.20;;;0.20;;
11263;SDS011;5689;48.798;9.070;2023-02-15T13:46:12;0.17;;;0.17;;
11263;SDS011;5689;48.798;9.070;2023-02-15T13:48:50;0.20;;;0.20;;
11263;SDS011;5689;48.798;9.070;2023-02-15T13:51:30;0.20;;;0.20;;
11263;SDS011;5689;48.798;9.070;2023-02-15T13:57:05;0.20;;;0.20;;
11263;SDS011;5689;48.798;9.070;2023-02-15T13:59:55;0.17;;;0.17;;
11263;SDS011;5689;48.798;9.070;2023-02-15T14:02:44;0.20;;;0.20;;
11263;SDS011;5689;48.798;9.070;2023-02-15T14:05:28;0.20;;;0.20;;
11263;SDS011;5689;48.798;9.070;2023-02-15T14:08:04;0.10;;;0.10;;
11263;SDS011;5689;48.798;9.070;2023-02-15T14:10:43;0.25;;;0.25;;
11263;SDS011;5689;48.798;9.070;2023-02-15T14:16:27;0.20;;;0.20;;
11263;SDS011;5689;48.798;9.070;2023-02-15T14:19:05;0.20;;;0.20;;
11263;SDS011;5689;48.798;9.070;2023-02-15T14:21:45;0.20;;;0.20;;
11263;SDS011;5689;48.798;9.070;2023-02-15T14:24:24;0.10;;;0.10;;
11263;SDS011;5689;48.798;9.070;2023-02-15T14:26:59;0.10;;;0.10;;
11263;SDS011;5689;48.798;9.070;2023-02-15T14:29:41;0.10;;;0.10;;
11263;SDS011;5689;48.798;9.070;2023-02-15T14:32:17;0.20;;;0.20;;
11263;SDS011;5689;48.798;9.070;2023-02-15T14:34:51;0.10;;;0.10;;
11263;SDS011;5689;48.798;9.070;2023-02-15T14:37:24;0.10;;;0.10;;
11263;SDS011;5689;48.798;9.070;2023-02-15T14:40:03;0.10;;;0.10;;
11263;SDS011;5689;48.798;9.070;2023-02-15T14:42:56;0.17;;;0.17;;
11263;SDS011;5689;48.798;9.070;2023-02-15T14:45:30;0.10;;;0.10;;
11263;SDS011;5689;48.798;9.070;2023-02-15T14:48:10;0.10;;;0.10;;
11263;SDS011;5689;48.798;9.070;2023-02-15T14:50:44;0.20;;;0.20;;
11263;SDS011;5689;48.798;9.070;2023-02-15T14:53:33;0.10;;;0.10;;
11263;SDS011;5689;48.798;9.070;2023-02-15T14:56:05;0.10;;;0.10;;
11263;SDS011;5689;48.798;9.070;2023-02-15T14:58:54;0.10;;;0.10;;
11263;SDS011;5689;48.798;9.070;2023-02-15T15:01:51;0.10;;;0.10;;
11263;SDS011;5689;48.798;9.070;2023-02-15T15:04:28;0.20;;;0.20;;
11263;SDS011;5689;48.798;9.070;2023-02-15T15:07:02;0.30;;;0.30;;
11263;SDS011;5689;48.798;9.070;2023-02-15T15:09:36;0.32;;;0.32;;
11263;SDS011;5689;48.798;9.070;2023-02-15T15:12:18;0.20;;;0.20;;
11263;SDS011;5689;48.798;9.070;2023-02-15T15:15:05;0.20;;;0.20;;
11263;SDS011;5689;48.798;9.070;2023-02-15T15:17:54;0.30;;;0.30;;
11263;SDS011;5689;48.798;9.070;2023-02-15T15:20:40;0.20;;;0.20;;
11263;SDS011;5689;48.798;9.070;2023-02-15T15:23:38;0.20;;;0.20;;
11263;SDS011;5689;48.798;9.070;2023-02-15T15:28:59;0.20;;;0.20;;
11263;SDS011;5689;48.798;9.070;2023-02-15T15:31:35;0.20;;;0.20;;
11263;SDS011;5689;48.798;9.070;2023-02-15T15:34:22;0.30;;;0.30;;
11263;SDS011;5689;48.798;9.070;2023-02-15T15:37:33;0.30;;;0.30;;
11263;SDS011;5689;48.798;9.070;2023-02-15T15:40:42;0.30;;;0.30;;
11263;SDS011;5689;48.798;9.070;2023-02-15T15:43:31;0.30;;;0.30;;
11263;SDS011;5689;48.798;9.070;2023-02-15T15:46:30;0.40;;;0.40;;
11263;SDS011;5689;48.798;9.070;2023-02-15T15:49:20;0.30;;;0.30;;
11263;SDS011;5689;48.798;9.070;2023-02-15T15:51:51;0.35;;;0.35;;
11263;SDS011;5689;48.798;9.070;2023-02-15T15:54:20;0.30;;;0.30;;
11263;SDS011;5689;48.798;9.070;2023-02-15T15:56:51;0.40;;;0.40;;
11263;SDS011;5689;48.798;9.070;2023-02-15T15:59:21;0.50;;;0.50;;
11263;SDS011;5689;48.798;9.070;2023-02-15T16:01:51;0.40;;;0.40;;
11263;SDS011;5689;48.798;9.070;2023-02-15T16:04:24;0.40;;;0.40;;
11263;SDS011;5689;48.798;9.070;2023-02-15T16:06:54;0.40;;;0.40;;
11263;SDS011;5689;48.798;9.070;2023-02-15T16:09:22;0.50;;;0.50;;
11263;SDS011;5689;48.798;9.070;2023-02-15T16:11:52;0.43;;;0.43;;
11263;SDS011;5689;48.798;9.070;2023-02-15T16:14:25;0.50;;;0.50;;
11263;SDS011;5689;48.798;9.070;2023-02-15T16:16:57;0.60;;;0.60;;